Startpagina
METAR-TAF:

METAR-TAF

Vliegvelden :

Pittsburgh International Airport

Pittsburgh, Pennsylvania, Verenigde Staten

breedte: 40-30-14N, lengte: 080-15-59W, hoogte: 366 m

Actueel weer

Dit bericht is 20 minuten geleden gemaakt, om 16:51 UTC
Wind 6 kt uit het zuidwesten
Temperatuur 26°C
Vochtigheid 70%
Druk 1018 hPa
Zicht: 16.1 km
Weinig wolken op 3000 ft
Weinig wolken op 15000 ft
Geheel bewolkt op 20000 ft

METAR: KPIT 151651Z 22006KT 10SM FEW030 FEW150 OVC200 26/20 A3007 RMK AO2 SLP183 T02560200

Tijdstip: 13:11 (17:11 UTC)

Verwachting

Dit bericht is 1 uur en het 19 minuten geleden gemaakt, om 15:52 UTC
Verwachting geldig van 15 om 16 UTC tot 16 om 18 UTC
Wind 5 kt uit het westzuidwesten
Zicht: 10 km
Weinig wolken op 15000 ft
Gebroken wolken op 25000 ft
Van 16 om 0300 UTC
Wind kt uit het noorden
Zicht: 10 km
Gebroken wolken op 8000 ft

TAF: KPIT 151552Z 1516/1618 25005KT P6SM FEW150 BKN250 FM160300 00000KT P6SM BKN080

Waarnemingen en weersverwachtingen van meer dan 4000 vliegvelden (METAR en TAF).

De beschikbare stations zijn de gele en rode punten op de kaart.

Ga met uw muis naar het station om de naam te zien.

Klik dan om waarnemingen en weersverwachtingen te zien.

kaart wijzigen: klik op de groene knoppen met een zwart kruis om in te zoomen, op de groene knop met een streepje om uit te zoomen of op de groene pijlen voor aangrenzende kaarten.


METAR-TAF: